Terminal Aerodrome Forecast
Issued by NWS

Home | Current Version | Previous Version | Graphics & Text | Print | Product List | Glossary On
Versions: 1 2 3 4 5 6 7 8 9 10 11 12 13 14 15 16 17 18 19 20 21 22 23 24 25 26 27 28 29 30 31 32 33 34 35 36 37 38 39 40 41 42 43 44 45 46
000
FTUS43 KGRB 220200 AAA
TAFRHI
TAF AMD
KRHI 220229Z 2202/2224 13007KT 6SM BR OVC004
     FM220400 13005KT 4SM BR OVC004
      TEMPO 2204/2207 2SM TSRA BKN015CB OVC035
     FM220700 VRB03KT 1SM BR BKN004 BKN010
      TEMPO 2208/2212 1/2SM FG VV002
     FM221400 VRB03KT 3SM BR BKN008 BKN035
     FM221600 VRB03KT 6SM HZ BKN020 BKN035
     FM222200 VRB03KT 6SM HZ BKN030=

USA.gov is the U.S. government's official web portal to all federal, state and local government web resources and services.